Time;durP1;ratioP1;P1;durP2;ratioP2;P2;SDS_P1;SDS_P2;PMS_P1;PMS_P2;Temp;Humidity;BMP_temperature;BMP_pressure;BME280_temperature;BME280_humidity;BME280_pressure;Samples;Min_cycle;Max_cycle;Signal;HPM_P1;HPM_P2
2022/11/28 00:02:17;;;;;;;9.60;6.40;;;6.90;99.90;;;;;;5029928;28;20045;-79
2022/11/28 00:04:43;;;;;;;8.52;6.63;;;6.70;99.90;;;;;;5023771;28;20092;-78
2022/11/28 00:07:10;;;;;;;9.38;6.55;;;6.70;99.90;;;;;;5021903;28;20581;-78
2022/11/28 00:09:35;;;;;;;9.38;6.40;;;6.70;99.90;;;;;;5024126;28;20053;-78
2022/11/28 00:12:01;;;;;;;9.05;6.68;;;6.70;99.90;;;;;;5018517;28;20041;-78
2022/11/28 00:14:27;;;;;;;11.35;6.90;;;6.70;99.90;;;;;;5023335;28;20768;-77
2022/11/28 00:16:52;;;;;;;7.18;6.47;;;6.70;99.90;;;;;;5017451;28;20061;-78
2022/11/28 00:19:18;;;;;;;9.10;6.57;;;6.70;99.90;;;;;;5023855;28;20850;-78
2022/11/28 00:21:44;;;;;;;8.32;6.85;;;6.70;99.90;;;;;;5012929;28;20098;-78
2022/11/28 00:24:09;;;;;;;8.73;6.50;;;7.30;99.90;;;;;;5017576;28;20045;-78
2022/11/28 00:26:38;;;;;;;8.30;6.40;;;6.70;99.90;;;;;;5018314;28;20051;-77
2022/11/28 00:29:05;;;;;;;9.30;6.93;;;6.70;99.90;;;;;;5029878;28;20216;-78
2022/11/28 00:31:34;;;;;;;9.13;6.65;;;6.70;99.90;;;;;;5019572;28;20042;-78
2022/11/28 00:34:03;;;;;;;8.48;5.15;;;6.80;99.90;;;;;;5019387;28;20041;-77
2022/11/28 00:36:29;;;;;;;8.02;6.35;;;6.80;99.90;;;;;;5018062;28;20227;-78
2022/11/28 00:38:55;;;;;;;10.38;7.30;;;6.80;99.90;;;;;;5022372;28;20037;-78
2022/11/28 00:41:24;;;;;;;9.75;6.78;;;6.80;99.90;;;;;;5016541;28;20676;-78
2022/11/28 00:43:51;;;;;;;13.82;7.35;;;6.80;99.90;;;;;;5018150;28;20045;-78
2022/11/28 00:46:18;;;;;;;7.10;5.57;;;6.70;99.90;;;;;;5020314;28;20053;-78
2022/11/28 00:48:44;;;;;;;6.82;5.70;;;6.80;99.90;;;;;;5018741;28;20054;-78
2022/11/28 00:51:15;;;;;;;7.82;7.03;;;6.80;99.90;;;;;;5012851;28;20042;-78
2022/11/28 00:53:43;;;;;;;8.15;6.78;;;6.80;99.90;;;;;;5028683;28;20052;-77
2022/11/28 00:56:15;;;;;;;13.13;7.05;;;6.80;99.90;;;;;;5019116;28;20605;-78
2022/11/28 00:58:41;;;;;;;7.75;6.15;;;6.80;99.90;;;;;;5018419;28;20045;-78
2022/11/28 01:01:19;;;;;;;9.52;6.65;;;6.90;99.90;;;;;;5018225;28;20053;-79
2022/11/28 01:03:46;;;;;;;9.68;6.75;;;6.90;99.90;;;;;;5033753;28;20041;-78
2022/11/28 01:06:29;;;;;;;7.07;5.55;;;6.90;99.90;;;;;;5025132;28;20056;-78
2022/11/28 01:08:56;;;;;;;8.63;5.85;;;6.90;99.90;;;;;;5018469;28;20053;-78
2022/11/28 01:11:22;;;;;;;11.40;6.60;;;6.90;99.90;;;;;;5020753;28;20360;-78
2022/11/28 01:13:48;;;;;;;12.63;6.85;;;6.90;99.90;;;;;;5017802;28;20516;-78
2022/11/28 01:16:13;;;;;;;7.65;6.85;;;6.90;99.90;;;;;;5019340;28;20057;-78
2022/11/28 01:18:39;;;;;;;7.07;6.35;;;6.90;99.90;;;;;;5019416;28;20847;-78
2022/11/28 01:21:06;;;;;;;11.05;6.50;;;6.90;99.90;;;;;;5019483;28;20045;-79
2022/11/28 01:23:32;;;;;;;8.82;6.15;;;7.00;99.90;;;;;;5015527;28;20057;-78
2022/11/28 01:25:59;;;;;;;8.10;6.15;;;7.00;99.90;;;;;;5010453;28;20053;-79
2022/11/28 01:28:25;;;;;;;9.38;6.72;;;7.00;99.90;;;;;;5020216;28;20075;-79
2022/11/28 01:30:50;;;;;;;8.50;6.68;;;7.00;99.90;;;;;;5013952;28;20410;-79
2022/11/28 01:33:16;;;;;;;9.50;6.68;;;7.00;99.90;;;;;;5014412;28;20047;-78
2022/11/28 01:35:42;;;;;;;10.25;7.43;;;7.00;99.90;;;;;;5018052;28;20666;-79
2022/11/28 01:38:07;;;;;;;8.95;6.40;;;7.00;99.90;;;;;;5015631;28;20595;-78
2022/11/28 01:40:33;;;;;;;7.03;5.97;;;7.00;99.90;;;;;;5018665;28;20064;-79
2022/11/28 01:42:59;;;;;;;8.00;7.07;;;7.00;99.90;;;;;;5018407;28;20841;-79
2022/11/28 01:45:28;;;;;;;10.40;6.95;;;7.10;99.90;;;;;;5018189;28;20944;-79
2022/11/28 01:47:59;;;;;;;10.48;7.28;;;7.30;99.90;;;;;;5015759;28;20524;-79
2022/11/28 01:50:27;;;;;;;7.93;6.15;;;7.10;99.90;;;;;;5017549;28;20174;-79
2022/11/28 01:52:56;;;;;;;9.80;7.03;;;7.50;99.90;;;;;;5016291;28;20077;-79
2022/11/28 01:55:25;;;;;;;10.52;7.10;;;7.10;99.90;;;;;;5022242;28;20045;-79
2022/11/28 01:57:53;;;;;;;9.43;7.28;;;8.00;99.90;;;;;;5017179;28;20475;-79
2022/11/28 02:00:20;;;;;;;7.95;7.15;;;7.70;99.90;;;;;;5021431;28;20077;-78
2022/11/28 02:02:52;;;;;;;8.60;6.43;;;7.10;99.90;;;;;;5014081;28;20040;-78
2022/11/28 02:05:20;;;;;;;8.10;7.10;;;7.10;99.90;;;;;;5015264;28;20045;-79
2022/11/28 02:07:46;;;;;;;11.88;7.80;;;6.80;99.90;;;;;;5013236;28;20049;-79
2022/11/28 02:10:34;;;;;;;10.02;7.10;;;7.10;99.90;;;;;;5014739;28;20442;-79
2022/11/28 02:13:12;;;;;;;11.95;7.85;;;7.10;99.90;;;;;;5015759;28;20041;-79
2022/11/28 02:15:58;;;;;;;12.75;9.00;;;7.00;99.90;;;;;;5014344;28;20056;-79
2022/11/28 02:18:54;;;;;;;11.77;8.25;;;7.00;99.90;;;;;;5006554;28;20054;-78
2022/11/28 02:21:55;;;;;;;10.70;8.10;;;7.00;99.90;;;;;;5004496;28;20053;-78
2022/11/28 02:24:35;;;;;;;12.10;9.55;;;7.00;99.90;;;;;;5002733;28;20057;-78
2022/11/28 02:27:37;;;;;;;9.65;8.07;;;7.00;99.90;;;;;;5014992;28;20075;-77
2022/11/28 02:30:12;;;;;;;13.13;8.88;;;7.00;99.90;;;;;;5015859;28;20157;-78
2022/11/28 02:33:02;;;;;;;12.30;9.63;;;7.00;99.90;;;;;;5013312;28;20156;-78
2022/11/28 02:35:44;;;;;;;15.15;8.65;;;7.00;99.90;;;;;;5016280;28;20049;-77
2022/11/28 02:38:12;;;;;;;12.20;9.00;;;7.70;99.90;;;;;;5015757;28;20409;-78
2022/11/28 02:40:51;;;;;;;12.43;9.35;;;7.70;99.90;;;;;;5014584;28;20045;-78
2022/11/28 02:43:24;;;;;;;14.88;8.73;;;7.80;99.90;;;;;;5015098;28;20102;-78
2022/11/28 02:46:09;;;;;;;10.30;8.37;;;7.00;99.90;;;;;;5010833;28;20796;-77
2022/11/28 02:48:46;;;;;;;10.57;7.70;;;7.00;99.90;;;;;;5014841;28;20059;-77
2022/11/28 02:51:19;;;;;;;9.18;7.85;;;7.00;99.90;;;;;;5014777;28;20049;-78
2022/11/28 02:53:47;;;;;;;8.95;7.40;;;7.30;99.90;;;;;;5018189;28;20049;-78
2022/11/28 02:56:13;;;;;;;10.10;7.25;;;7.00;99.90;;;;;;5019194;28;20081;-77
2022/11/28 02:58:39;;;;;;;11.05;8.10;;;7.00;99.90;;;;;;5020360;28;20158;-78
2022/11/28 03:01:11;;;;;;;10.18;7.82;;;7.30;99.90;;;;;;5017996;28;20056;-78
2022/11/28 03:03:48;;;;;;;11.90;8.02;;;7.10;99.90;;;;;;5019198;28;20045;-77
2022/11/28 03:06:40;;;;;;;13.20;8.18;;;7.10;99.90;;;;;;5008348;28;20690;-77
2022/11/28 03:09:24;;;;;;;13.10;8.70;;;7.10;99.90;;;;;;5012048;28;20529;-78
2022/11/28 03:12:25;;;;;;;11.82;7.90;;;7.50;99.90;;;;;;5007843;28;20140;-77
2022/11/28 03:15:03;;;;;;;12.18;8.20;;;7.10;99.90;;;;;;4992586;28;20057;-77
2022/11/28 03:17:47;;;;;;;12.00;10.05;;;7.10;99.90;;;;;;5014684;28;20607;-77
2022/11/28 03:20:42;;;;;;;10.02;8.38;;;7.10;99.90;;;;;;5014091;28;20037;-77
2022/11/28 03:23:25;;;;;;;14.27;10.43;;;7.00;99.90;;;;;;4997317;28;20049;-77
2022/11/28 03:26:14;;;;;;;10.30;9.10;;;7.50;99.90;;;;;;5011930;28;20049;-77
2022/11/28 03:29:05;;;;;;;11.02;9.63;;;7.10;99.90;;;;;;5009367;28;20053;-77
2022/11/28 03:31:39;;;;;;;11.63;9.23;;;7.10;99.90;;;;;;5008088;28;20104;-77
2022/11/28 03:34:09;;;;;;;12.70;10.00;;;7.10;99.90;;;;;;5020980;28;20048;-77
2022/11/28 03:36:39;;;;;;;11.43;9.38;;;7.10;99.90;;;;;;5012253;28;20152;-77
2022/11/28 03:39:09;;;;;;;13.27;10.43;;;7.10;99.90;;;;;;5018002;28;20076;-77
2022/11/28 03:41:39;;;;;;;11.65;9.80;;;7.10;99.90;;;;;;5011562;28;20124;-77
2022/11/28 03:44:13;;;;;;;13.90;10.32;;;7.10;99.90;;;;;;5019198;28;20048;-77
2022/11/28 03:46:45;;;;;;;11.27;10.10;;;7.20;99.90;;;;;;5013179;28;20089;-77
2022/11/28 03:49:14;;;;;;;15.85;9.70;;;7.20;99.90;;;;;;5007387;28;20056;-77
2022/11/28 03:51:56;;;;;;;12.80;10.07;;;7.80;99.90;;;;;;5017002;28;20057;-77
2022/11/28 03:54:54;;;;;;;16.33;10.65;;;7.20;99.90;;;;;;5015297;28;20089;-77
2022/11/28 03:57:25;;;;;;;15.75;11.85;;;7.20;99.90;;;;;;5015723;28;20196;-77
2022/11/28 03:59:52;;;;;;;15.35;11.60;;;7.30;99.90;;;;;;5014519;28;20944;-76
2022/11/28 04:02:43;;;;;;;15.07;11.05;;;7.40;99.90;;;;;;5015587;28;20037;-77
2022/11/28 04:05:47;;;;;;;15.77;10.77;;;7.30;99.90;;;;;;5014727;28;20049;-77
2022/11/28 04:08:17;;;;;;;17.00;10.98;;;7.30;99.90;;;;;;5013132;28;20068;-76
2022/11/28 04:11:18;;;;;;;16.80;10.90;;;7.30;99.90;;;;;;5007994;28;20574;-76
2022/11/28 04:13:44;;;;;;;14.43;10.90;;;7.30;99.90;;;;;;4982305;28;20065;-76
2022/11/28 04:16:53;;;;;;;14.52;11.15;;;7.40;99.90;;;;;;5006482;28;20064;-76
2022/11/28 04:19:42;;;;;;;16.85;12.20;;;7.40;99.90;;;;;;4976334;28;20086;-76
2022/11/28 04:22:24;;;;;;;13.93;11.40;;;7.40;99.90;;;;;;5011714;28;20045;-76
2022/11/28 04:25:02;;;;;;;14.60;11.70;;;7.40;99.90;;;;;;5009861;28;20412;-76
2022/11/28 04:27:36;;;;;;;16.73;11.90;;;7.40;99.90;;;;;;5028682;28;20137;-76
2022/11/28 04:30:03;;;;;;;18.52;13.45;;;7.50;99.90;;;;;;5018919;28;20053;-76
2022/11/28 04:32:31;;;;;;;16.23;12.50;;;7.50;99.90;;;;;;5020456;28;20044;-76
2022/11/28 04:35:13;;;;;;;17.75;12.55;;;7.50;99.90;;;;;;5018469;28;20045;-76
2022/11/28 04:37:42;;;;;;;17.48;12.73;;;7.50;99.90;;;;;;5019162;28;20083;-76
2022/11/28 04:40:10;;;;;;;16.40;13.48;;;7.50;99.90;;;;;;5017488;28;20951;-76
2022/11/28 04:42:48;;;;;;;18.58;12.88;;;7.50;99.90;;;;;;5021637;28;20402;-76
2022/11/28 04:45:20;;;;;;;18.05;13.48;;;7.60;99.90;;;;;;5020149;28;20060;-76
2022/11/28 04:47:47;;;;;;;15.55;13.80;;;7.60;99.90;;;;;;5019544;28;20136;-76
2022/11/28 04:50:13;;;;;;;20.25;14.13;;;7.60;99.90;;;;;;5019216;28;20191;-76
2022/11/28 04:52:50;;;;;;;20.63;14.25;;;7.60;99.90;;;;;;5019043;28;20072;-76
2022/11/28 04:55:22;;;;;;;17.92;14.75;;;7.60;99.90;;;;;;5018892;28;20553;-76
2022/11/28 04:57:53;;;;;;;15.68;14.07;;;7.70;99.90;;;;;;5018460;28;20051;-76
2022/11/28 05:00:21;;;;;;;17.50;14.65;;;7.70;99.90;;;;;;5016571;28;20148;-76
2022/11/28 05:02:50;;;;;;;16.00;14.30;;;7.70;99.90;;;;;;5017434;28;20041;-77
2022/11/28 05:05:22;;;;;;;15.90;13.95;;;7.80;99.90;;;;;;5019092;28;20293;-77
2022/11/28 05:07:48;;;;;;;19.25;14.95;;;7.80;99.90;;;;;;5013331;28;20142;-77
2022/11/28 05:10:15;;;;;;;15.88;13.48;;;8.40;99.90;;;;;;5017110;28;20136;-77
2022/11/28 05:12:41;;;;;;;18.33;13.82;;;7.80;99.90;;;;;;5017909;28;20052;-77
2022/11/28 05:15:08;;;;;;;15.27;13.70;;;8.40;99.90;;;;;;5017927;28;20482;-77
2022/11/28 05:17:34;;;;;;;16.42;14.60;;;7.90;99.90;;;;;;5018429;28;20064;-77
2022/11/28 05:19:59;;;;;;;15.30;13.20;;;7.90;99.90;;;;;;5013679;28;20172;-78
2022/11/28 05:22:25;;;;;;;20.58;15.43;;;7.90;99.90;;;;;;5018689;28;20046;-77
2022/11/28 05:24:51;;;;;;;25.63;15.00;;;7.90;99.90;;;;;;5016058;28;20069;-77
2022/11/28 05:27:17;;;;;;;17.98;14.48;;;8.20;99.90;;;;;;5020168;28;20103;-77
2022/11/28 05:29:45;;;;;;;16.52;14.80;;;7.90;99.90;;;;;;5019344;28;20041;-77
2022/11/28 05:32:11;;;;;;;19.30;15.73;;;8.00;99.90;;;;;;5017766;28;20120;-77
2022/11/28 05:34:37;;;;;;;17.65;15.85;;;8.00;99.90;;;;;;5017488;28;20055;-77
2022/11/28 05:37:04;;;;;;;17.83;15.80;;;8.00;99.90;;;;;;5024307;28;21540;-77
2022/11/28 05:39:30;;;;;;;19.08;16.00;;;8.60;99.90;;;;;;5021968;28;20087;-77
2022/11/28 05:41:56;;;;;;;20.80;16.05;;;8.00;99.90;;;;;;5024645;28;20053;-78
2022/11/28 05:44:22;;;;;;;18.77;15.98;;;8.00;99.90;;;;;;5022307;28;20131;-77
2022/11/28 05:46:47;;;;;;;18.05;15.40;;;8.50;99.90;;;;;;5017282;28;20053;-77
2022/11/28 05:49:13;;;;;;;17.02;15.23;;;8.00;99.90;;;;;;5019137;28;20045;-77
2022/11/28 05:51:39;;;;;;;19.70;15.23;;;8.40;99.90;;;;;;5025781;28;20057;-77
2022/11/28 05:54:05;;;;;;;17.05;14.88;;;8.00;99.90;;;;;;5026437;28;20115;-77
2022/11/28 05:56:31;;;;;;;17.00;15.30;;;8.00;99.90;;;;;;5016831;28;20236;-77
2022/11/28 05:58:57;;;;;;;16.85;14.02;;;8.10;99.90;;;;;;5020731;28;20768;-77
2022/11/28 06:01:26;;;;;;;16.80;14.02;;;8.10;99.90;;;;;;5019790;28;20052;-77
2022/11/28 06:03:57;;;;;;;16.33;13.90;;;8.10;99.90;;;;;;5012820;28;20049;-77
2022/11/28 06:06:23;;;;;;;19.27;14.27;;;8.10;99.90;;;;;;5023581;28;20185;-77
2022/11/28 06:08:51;;;;;;;16.55;13.85;;;8.10;99.90;;;;;;5024725;28;20145;-78
2022/11/28 06:11:18;;;;;;;14.90;13.32;;;8.10;99.90;;;;;;5023886;28;20041;-77
2022/11/28 06:13:45;;;;;;;16.10;13.25;;;8.10;99.90;;;;;;5025438;28;20057;-77
2022/11/28 06:16:13;;;;;;;17.58;15.18;;;8.10;99.90;;;;;;5025393;28;20068;-78
2022/11/28 06:18:39;;;;;;;16.70;14.48;;;8.20;99.90;;;;;;5026802;28;20101;-78
2022/11/28 06:21:07;;;;;;;15.00;12.95;;;8.10;99.90;;;;;;5023638;28;20055;-77
2022/11/28 06:23:33;;;;;;;15.98;13.35;;;8.20;99.90;;;;;;5022751;28;20508;-77
2022/11/28 06:26:14;;;;;;;15.80;12.57;;;8.20;99.90;;;;;;5017247;28;20525;-77
2022/11/28 06:28:40;;;;;;;17.77;14.50;;;8.20;99.90;;;;;;5019023;28;20045;-76
2022/11/28 06:31:27;;;;;;;16.83;12.60;;;8.20;99.90;;;;;;5022157;28;20045;-77
2022/11/28 06:33:53;;;;;;;17.13;13.52;;;8.20;99.90;;;;;;5022950;28;20204;-77
2022/11/28 06:36:19;;;;;;;18.58;14.93;;;8.20;99.90;;;;;;5026425;28;20049;-77
2022/11/28 06:38:46;;;;;;;16.10;14.13;;;8.20;99.90;;;;;;5024562;28;20103;-78
2022/11/28 06:41:14;;;;;;;15.18;13.63;;;8.20;99.90;;;;;;5021751;28;20499;-77
2022/11/28 06:43:40;;;;;;;17.80;13.45;;;8.20;99.90;;;;;;5022852;28;20044;-77
2022/11/28 06:46:14;;;;;;;19.38;14.52;;;8.20;99.90;;;;;;5021883;28;20048;-77
2022/11/28 06:48:40;;;;;;;17.40;14.02;;;8.30;99.90;;;;;;5013209;28;20052;-78
2022/11/28 06:51:07;;;;;;;18.02;14.25;;;8.20;99.90;;;;;;5015526;28;20041;-77
2022/11/28 06:53:33;;;;;;;18.45;14.48;;;8.20;99.90;;;;;;5010353;28;20123;-77
2022/11/28 06:56:06;;;;;;;18.15;12.70;;;8.30;99.90;;;;;;5013440;28;20484;-77
2022/11/28 06:58:32;;;;;;;15.20;13.30;;;8.30;99.90;;;;;;5012965;28;20797;-77
2022/11/28 07:01:05;;;;;;;21.92;15.77;;;8.30;99.90;;;;;;5014935;28;20126;-77
2022/11/28 07:03:30;;;;;;;15.80;14.13;;;8.20;99.90;;;;;;5015123;28;20049;-77
2022/11/28 07:06:02;;;;;;;18.15;14.25;;;8.30;99.90;;;;;;5015535;28;20049;-77
2022/11/28 07:08:30;;;;;;;19.70;14.85;;;8.30;99.90;;;;;;5028395;28;20055;-77
2022/11/28 07:10:56;;;;;;;16.50;14.57;;;8.30;99.90;;;;;;5014307;28;20191;-78
2022/11/28 07:13:23;;;;;;;16.83;13.02;;;8.30;99.90;;;;;;5026132;28;20076;-77
2022/11/28 07:15:50;;;;;;;18.50;14.38;;;8.30;99.90;;;;;;5013711;28;20067;-77
2022/11/28 07:18:16;;;;;;;17.17;13.55;;;8.30;99.90;;;;;;5021946;28;20091;-77
2022/11/28 07:20:42;;;;;;;18.25;14.40;;;8.40;99.90;;;;;;5014510;28;20154;-77
2022/11/28 07:23:08;;;;;;;16.33;14.25;;;8.30;99.90;;;;;;5022467;28;20053;-77
2022/11/28 07:25:33;;;;;;;17.40;13.60;;;8.30;99.90;;;;;;5005146;28;20058;-77
2022/11/28 07:27:59;;;;;;;19.65;15.55;;;8.30;99.90;;;;;;5022606;28;20627;-76
2022/11/28 07:30:25;;;;;;;18.30;14.30;;;8.30;99.90;;;;;;5009170;28;20088;-77
2022/11/28 07:32:51;;;;;;;18.15;13.95;;;8.40;99.90;;;;;;5016195;28;20481;-76
2022/11/28 07:35:16;;;;;;;17.92;13.60;;;8.40;99.90;;;;;;5017097;28;20520;-75
2022/11/28 07:37:42;;;;;;;19.80;16.23;;;8.30;99.90;;;;;;5016481;28;20877;-75
2022/11/28 07:40:08;;;;;;;18.13;15.13;;;8.40;99.90;;;;;;5023874;28;20124;-74
2022/11/28 07:42:34;;;;;;;20.15;15.30;;;8.30;99.90;;;;;;5001322;28;20155;-73
2022/11/28 07:44:59;;;;;;;16.65;13.90;;;8.40;99.90;;;;;;5012788;28;20160;-73
2022/11/28 07:47:25;;;;;;;19.20;13.60;;;8.30;99.90;;;;;;5012263;28;20113;-74
2022/11/28 07:49:51;;;;;;;14.75;12.20;;;8.30;99.90;;;;;;5011947;28;20057;-75
2022/11/28 07:52:17;;;;;;;14.52;12.65;;;8.30;99.90;;;;;;5019619;28;20033;-74
2022/11/28 07:54:42;;;;;;;16.50;13.48;;;8.40;99.90;;;;;;5024168;28;20195;-74
2022/11/28 07:57:08;;;;;;;15.20;12.35;;;8.30;99.90;;;;;;5023967;28;20109;-74
2022/11/28 07:59:33;;;;;;;17.23;13.20;;;8.30;99.90;;;;;;5018757;28;20057;-78
2022/11/28 08:01:59;;;;;;;17.00;12.40;;;8.40;99.90;;;;;;5021681;28;20971;-78
2022/11/28 08:04:25;;;;;;;17.00;12.27;;;8.40;99.90;;;;;;5030911;28;20076;-75
2022/11/28 08:06:50;;;;;;;18.38;12.25;;;8.30;99.90;;;;;;5018224;28;20116;-75
2022/11/28 08:09:16;;;;;;;13.50;10.63;;;8.40;99.90;;;;;;5018431;28;20049;-75
2022/11/28 08:11:42;;;;;;;13.02;11.73;;;8.40;99.90;;;;;;5019953;28;20064;-75
2022/11/28 08:14:08;;;;;;;12.77;11.38;;;8.40;99.90;;;;;;5019110;28;20051;-76
2022/11/28 08:16:35;;;;;;;12.60;11.32;;;8.40;99.90;;;;;;5022569;28;20065;-76
2022/11/28 08:19:02;;;;;;;16.40;10.25;;;8.40;99.90;;;;;;5024873;28;20041;-76
2022/11/28 08:21:31;;;;;;;14.02;11.88;;;8.40;99.90;;;;;;5014757;28;20057;-77
2022/11/28 08:24:01;;;;;;;11.45;10.02;;;8.40;99.90;;;;;;5014476;28;20076;-76
2022/11/28 08:26:28;;;;;;;13.23;10.38;;;8.40;99.90;;;;;;5013976;28;20059;-76
2022/11/28 08:28:54;;;;;;;11.27;9.32;;;8.40;99.90;;;;;;5007877;28;20045;-76
2022/11/28 08:31:25;;;;;;;10.57;9.48;;;8.40;99.90;;;;;;5021712;28;20096;-76
2022/11/28 08:33:53;;;;;;;13.10;10.00;;;8.50;99.90;;;;;;5018121;28;20049;-76
2022/11/28 08:36:19;;;;;;;13.02;10.30;;;8.50;99.90;;;;;;5015522;28;20045;-76
2022/11/28 08:38:47;;;;;;;10.50;8.05;;;8.50;99.90;;;;;;5023374;28;20400;-76
2022/11/28 08:41:15;;;;;;;11.90;9.55;;;8.50;99.90;;;;;;5028466;28;20056;-76
2022/11/28 08:43:41;;;;;;;14.95;10.38;;;8.50;99.90;;;;;;5017575;28;20156;-76
2022/11/28 08:46:13;;;;;;;10.80;9.40;;;8.70;99.90;;;;;;5020595;28;20561;-76
2022/11/28 08:48:40;;;;;;;8.90;8.00;;;8.50;99.90;;;;;;5016391;28;20069;-75
2022/11/28 08:51:08;;;;;;;8.77;7.68;;;8.50;99.90;;;;;;5019451;28;20052;-75
2022/11/28 08:53:34;;;;;;;8.77;7.93;;;8.50;99.90;;;;;;5027179;28;20088;-75
2022/11/28 08:55:59;;;;;;;9.52;7.20;;;8.50;99.90;;;;;;5019317;28;20160;-75
2022/11/28 08:58:25;;;;;;;9.07;7.68;;;8.60;99.90;;;;;;5020984;28;20046;-75
2022/11/28 09:00:51;;;;;;;9.68;8.55;;;8.60;99.90;;;;;;5025189;28;20091;-75
2022/11/28 09:03:18;;;;;;;7.82;7.05;;;8.60;99.90;;;;;;5022997;28;20048;-75
2022/11/28 09:05:46;;;;;;;9.23;7.00;;;8.60;99.90;;;;;;5021291;28;20053;-75
2022/11/28 09:08:12;;;;;;;8.52;7.30;;;8.60;99.90;;;;;;5029511;28;20046;-76
2022/11/28 09:10:39;;;;;;;7.80;6.15;;;8.60;99.90;;;;;;5019086;28;20120;-76
2022/11/28 09:13:05;;;;;;;7.68;6.45;;;8.60;99.90;;;;;;5018792;28;20038;-76
2022/11/28 09:15:32;;;;;;;6.50;5.82;;;8.60;99.90;;;;;;5014490;28;20111;-76
2022/11/28 09:17:58;;;;;;;6.75;5.93;;;8.60;99.90;;;;;;5019700;28;20632;-75
2022/11/28 09:20:24;;;;;;;7.93;6.43;;;8.60;99.90;;;;;;5019484;28;20107;-75
2022/11/28 09:22:51;;;;;;;6.13;5.53;;;8.60;99.90;;;;;;5017440;28;20800;-75
2022/11/28 09:25:17;;;;;;;8.10;6.13;;;8.60;99.90;;;;;;5017961;28;20053;-75
2022/11/28 09:27:42;;;;;;;6.72;5.95;;;8.70;99.90;;;;;;4985867;28;20063;-75
2022/11/28 09:30:08;;;;;;;5.32;4.82;;;8.60;99.90;;;;;;5024835;28;20055;-75
2022/11/28 09:32:34;;;;;;;6.70;6.05;;;8.70;99.90;;;;;;5019104;28;20422;-75
2022/11/28 09:35:00;;;;;;;7.32;5.85;;;8.70;99.90;;;;;;5021805;28;20052;-74
2022/11/28 09:37:28;;;;;;;7.80;5.80;;;8.70;99.90;;;;;;5022481;28;20037;-75
2022/11/28 09:39:53;;;;;;;5.53;5.03;;;8.70;99.90;;;;;;5017331;28;20098;-77
2022/11/28 09:42:25;;;;;;;6.35;5.75;;;8.60;99.90;;;;;;5018984;28;20053;-76
2022/11/28 09:44:54;;;;;;;5.90;5.07;;;8.70;99.90;;;;;;5019777;28;20136;-75
2022/11/28 09:47:24;;;;;;;5.60;5.05;;;8.70;99.90;;;;;;5016713;28;20512;-77
2022/11/28 09:50:19;;;;;;;5.05;4.60;;;8.70;99.90;;;;;;5016236;28;20061;-77
2022/11/28 09:52:54;;;;;;;4.68;4.28;;;8.80;99.90;;;;;;5016577;28;20061;-77
2022/11/28 09:55:46;;;;;;;7.68;4.53;;;8.80;99.90;;;;;;5016777;28;20906;-77
2022/11/28 09:58:34;;;;;;;6.13;5.53;;;8.80;99.90;;;;;;5012012;28;20096;-77
2022/11/28 10:01:21;;;;;;;6.28;4.30;;;8.80;99.90;;;;;;5009486;28;20061;-76
2022/11/28 10:03:57;;;;;;;5.20;4.55;;;8.80;99.90;;;;;;5013757;28;20153;-75
2022/11/28 10:06:34;;;;;;;4.75;4.13;;;8.80;99.90;;;;;;5014969;28;20136;-76
2022/11/28 10:09:14;;;;;;;5.53;4.75;;;8.70;99.90;;;;;;5001008;28;20081;-75
2022/11/28 10:11:45;;;;;;;6.20;4.93;;;8.80;99.90;;;;;;5010964;28;20858;-75
2022/11/28 10:14:42;;;;;;;5.82;4.75;;;8.80;99.90;;;;;;5025688;28;20056;-75
2022/11/28 10:17:10;;;;;;;6.05;4.68;;;8.80;99.90;;;;;;5015379;28;20099;-76
2022/11/28 10:19:49;;;;;;;4.78;4.38;;;8.80;99.90;;;;;;5029429;28;20049;-76
2022/11/28 10:22:21;;;;;;;5.57;4.95;;;9.40;99.90;;;;;;5003473;28;20148;-76
2022/11/28 10:24:52;;;;;;;5.93;4.78;;;8.80;99.90;;;;;;5007145;28;20076;-75
2022/11/28 10:27:18;;;;;;;5.03;4.53;;;8.80;99.90;;;;;;5016857;28;20041;-76
2022/11/28 10:29:49;;;;;;;5.75;5.13;;;8.90;99.90;;;;;;5022535;28;20057;-75
2022/11/28 10:32:31;;;;;;;5.68;4.38;;;8.90;99.90;;;;;;5011402;28;20049;-75
2022/11/28 10:35:01;;;;;;;5.43;4.45;;;8.90;99.90;;;;;;5016755;28;20053;-75
2022/11/28 10:37:31;;;;;;;5.25;4.82;;;8.90;99.90;;;;;;5015318;28;20045;-75
2022/11/28 10:40:19;;;;;;;5.28;4.78;;;8.90;99.90;;;;;;5012541;28;20490;-75
2022/11/28 10:42:48;;;;;;;5.15;4.65;;;9.00;99.90;;;;;;5018671;28;20041;-75
2022/11/28 10:45:30;;;;;;;4.82;4.03;;;9.00;99.90;;;;;;5018051;28;20135;-75
2022/11/28 10:48:11;;;;;;;6.25;5.00;;;9.00;99.90;;;;;;5017931;28;20055;-75
2022/11/28 10:50:40;;;;;;;6.13;4.85;;;9.00;99.90;;;;;;5016410;28;20555;-75
2022/11/28 10:53:21;;;;;;;6.85;5.30;;;9.10;99.90;;;;;;5021573;28;20444;-75
2022/11/28 10:55:47;;;;;;;4.82;4.25;;;9.00;99.90;;;;;;5010407;28;20045;-75
2022/11/28 10:58:26;;;;;;;5.13;4.63;;;9.10;99.90;;;;;;5017663;28;20045;-75
2022/11/28 11:00:56;;;;;;;5.45;4.93;;;9.10;99.90;;;;;;5025113;28;20045;-74
2022/11/28 11:03:28;;;;;;;6.13;4.88;;;9.20;99.90;;;;;;5016749;28;20125;-75
2022/11/28 11:05:54;;;;;;;5.60;5.00;;;9.20;99.90;;;;;;5015091;28;20550;-75
2022/11/28 11:08:23;;;;;;;6.97;5.65;;;9.10;99.90;;;;;;5018222;28;20060;-75
2022/11/28 11:11:06;;;;;;;5.63;5.05;;;9.20;99.90;;;;;;5014435;28;20096;-75
2022/11/28 11:13:33;;;;;;;;;;;9.20;99.90;;;;;;5016935;28;20092;-75
2022/11/28 11:16:10;;;;;;;5.43;4.93;;;9.10;99.90;;;;;;5013565;28;19929;-75
2022/11/28 11:18:56;;;;;;;5.30;4.75;;;9.20;99.90;;;;;;5009069;28;20498;-75
2022/11/28 11:21:24;;;;;;;6.45;5.22;;;9.20;99.90;;;;;;5013465;28;20938;-75
2022/11/28 11:24:10;;;;;;;5.18;4.35;;;9.20;99.90;;;;;;5015026;28;20058;-75
2022/11/28 11:26:42;;;;;;;6.25;4.88;;;9.20;99.90;;;;;;5013723;28;20516;-75
2022/11/28 11:29:28;;;;;;;6.13;4.95;;;9.30;99.90;;;;;;5029277;28;20049;-74
2022/11/28 11:31:54;;;;;;;4.60;4.20;;;9.20;99.90;;;;;;5022568;28;20505;-74
2022/11/28 11:34:22;;;;;;;5.63;4.45;;;9.30;99.90;;;;;;5020033;28;20049;-73
2022/11/28 11:36:49;;;;;;;5.72;4.78;;;9.30;99.90;;;;;;5011533;28;20053;-74
2022/11/28 11:39:24;;;;;;;6.20;5.30;;;9.30;99.90;;;;;;5026604;28;20528;-75
2022/11/28 11:42:17;;;;;;;7.03;5.03;;;9.40;99.90;;;;;;5033090;28;20053;-75
2022/11/28 11:44:43;;;;;;;5.28;4.85;;;9.40;99.90;;;;;;5022053;28;20582;-75
2022/11/28 11:47:09;;;;;;;6.35;4.38;;;9.40;99.90;;;;;;5014363;28;20561;-75
2022/11/28 11:49:43;;;;;;;5.55;4.60;;;9.40;99.90;;;;;;5021492;28;20045;-75
2022/11/28 11:52:12;;;;;;;6.88;4.63;;;9.50;99.90;;;;;;5015588;28;20127;-75
2022/11/28 11:54:56;;;;;;;5.68;4.45;;;9.50;99.90;;;;;;5021451;28;20049;-75
2022/11/28 11:57:38;;;;;;;6.32;4.50;;;9.10;99.90;;;;;;5014840;28;20049;-75
2022/11/28 12:00:13;;;;;;;7.95;4.72;;;9.40;99.90;;;;;;5020765;28;20045;-75
2022/11/28 12:02:57;;;;;;;5.88;4.68;;;9.40;99.90;;;;;;5020842;28;20553;-75
2022/11/28 12:05:27;;;;;;;;;;;9.50;99.90;;;;;;5016151;28;20051;-75
2022/11/28 12:07:58;;;;;;;4.38;3.97;;;9.40;99.90;;;;;;5023232;28;19925;-75
2022/11/28 12:10:26;;;;;;;5.82;4.97;;;9.50;99.90;;;;;;5015856;28;20080;-75
2022/11/28 12:12:52;;;;;;;7.35;5.25;;;9.50;99.90;;;;;;5021622;28;20053;-75
2022/11/28 12:15:33;;;;;;;6.35;4.63;;;9.50;99.90;;;;;;5020691;28;20094;-75
2022/11/28 12:18:21;;;;;;;5.97;5.47;;;9.50;99.90;;;;;;5012249;28;20057;-75
2022/11/28 12:21:03;;;;;;;7.20;5.32;;;9.60;99.90;;;;;;5021770;28;20148;-75
2022/11/28 12:23:41;;;;;;;6.47;5.00;;;9.60;99.90;;;;;;5021374;28;20037;-75
2022/11/28 12:26:12;;;;;;;5.75;5.25;;;9.60;99.90;;;;;;5021861;28;20124;-75
2022/11/28 12:28:44;;;;;;;6.88;4.97;;;9.60;99.90;;;;;;5022104;28;20045;-75
2022/11/28 12:31:35;;;;;;;7.20;5.07;;;9.60;99.90;;;;;;5021834;28;20111;-75
2022/11/28 12:34:06;;;;;;;7.30;4.43;;;9.60;99.90;;;;;;5023043;28;20707;-75
2022/11/28 12:36:37;;;;;;;5.85;5.13;;;9.60;99.90;;;;;;5009736;28;20049;-75
2022/11/28 12:39:11;;;;;;;7.68;5.47;;;9.60;99.90;;;;;;5019252;28;20107;-75
2022/11/28 12:41:52;;;;;;;7.28;4.97;;;9.70;99.90;;;;;;5015078;28;20046;-75
2022/11/28 12:44:36;;;;;;;6.65;5.18;;;9.70;99.90;;;;;;5015617;28;20493;-75
2022/11/28 12:47:22;;;;;;;6.68;5.72;;;9.70;99.90;;;;;;5015423;28;20045;-75
2022/11/28 12:50:13;;;;;;;6.07;5.25;;;9.70;99.90;;;;;;5016125;28;20056;-75
2022/11/28 12:53:06;;;;;;;5.13;4.63;;;9.80;99.90;;;;;;5017127;28;20037;-75
2022/11/28 12:55:47;;;;;;;5.05;4.25;;;9.80;99.90;;;;;;5015495;28;20091;-76
2022/11/28 12:58:25;;;;;;;7.82;6.57;;;9.80;99.90;;;;;;5021491;28;20056;-75
2022/11/28 13:01:26;;;;;;;6.72;5.15;;;9.80;99.90;;;;;;5016020;28;21073;-75
2022/11/28 13:04:11;;;;;;;6.82;4.43;;;9.80;99.90;;;;;;5013939;28;20084;-75
2022/11/28 13:07:03;;;;;;;7.43;5.85;;;9.80;99.90;;;;;;5013279;28;20088;-75
2022/11/28 13:10:13;;;;;;;6.35;5.13;;;9.80;99.90;;;;;;5016458;28;20128;-75
2022/11/28 13:13:02;;;;;;;6.93;5.22;;;9.70;99.90;;;;;;4985430;28;20053;-75
2022/11/28 13:15:49;;;;;;;5.47;4.57;;;9.80;99.90;;;;;;5009895;28;20045;-75